Flight Track Log - Related Links

Times and Time Zones

All times are in EDT time to prevent confusion due to time zone crossing. See the C-FXDD flight status page for this flight to view local times or setup timezone preferences in your user account.

Time Position Orientation Groundspeed Altitude Reporting Facility
EDT Latitude Longitude Course Direction KTS MPH feet Rate Location/Type
Mon 02:06:08 PM 50.0167 -97.0500 63° Northeast 100 115 1,800  Level Winnipeg Center
Mon 02:07:08 PM 50.0000 -97.0500 180° South 100 115 2,900 600 Climbing Winnipeg Center
Mon 02:08:08 PM 50.0000 -97.1000 270° West 110 127 3,000 50 Climbing Winnipeg Center
Mon 02:09:08 PM 50.0000 -97.1500 270° West 120 138 3,000  Level Winnipeg Center
Mon 02:10:08 PM 50.0167 -97.2000 297° West 120 138 3,000  Level Winnipeg Center
Mon 02:11:00 PM 50.0564 -97.0325 63° Northeast  Level Estimated
Mon 02:11:08 PM 50.0167 -97.2500 270° West 110 127 3,000  Level Winnipeg Center
Mon 02:12:08 PM 50.0167 -97.2833 270° West 110 127 3,000  Level Winnipeg Center
Mon 02:13:08 PM 50.0167 -97.3333 270° West 100 115 3,000  Level Winnipeg Center
Mon 02:14:08 PM 50.0000 -97.3500 213° Southwest 120 138 3,000 -100 Level Winnipeg Center
Mon 02:15:08 PM 49.9667 -97.3333 162° South 110 127 2,800 -500 Descending Winnipeg Center
Mon 02:16:08 PM 49.9333 -97.3000 147° Southeast 130 150 2,000 -800 Descending Winnipeg Center
Mon 02:17:08 PM 49.9167 -97.2500 117° Southeast 130 150 1,200 -250 Descending Winnipeg Center
Mon 02:18:08 PM 49.8833 -97.2333 162° South 130 150 1,500 600 Climbing Winnipeg Center
Mon 02:19:08 PM 49.8833 -97.1667 90° East 130 150 2,400 850 Climbing Winnipeg Center
Mon 02:20:08 PM 49.8833 -97.1167 90° East 130 150 3,200 850 Climbing Winnipeg Center
Mon 02:21:08 PM 49.9167 -97.1000 18° North 110 127 4,100 500 Climbing Winnipeg Center
Mon 02:22:08 PM 49.9333 -97.1500 297° West 130 150 4,200 -50 Climbing Winnipeg Center
Mon 02:23:08 PM 49.9667 -97.1667 342° North 130 150 4,000 -100 Descending Winnipeg Center
Mon 02:24:08 PM 49.9833 -97.2000 308° West 120 138 4,000  Level Winnipeg Center
Mon 02:25:08 PM 50.0167 -97.2500 316° Northwest 120 138 4,000 -50 Level Winnipeg Center
Mon 02:26:08 PM 50.0333 -97.2833 308° West 110 127 3,900 -450 Descending Winnipeg Center
Mon 02:27:08 PM 50.0333 -97.3333 270° West 130 150 3,100 -400 Descending Winnipeg Center
Mon 02:28:08 PM 50.0667 -97.3833 316° Northwest 130 150 3,100  Level Winnipeg Center
Mon 02:29:08 PM 50.0833 -97.4167 308° West 120 138 3,100  Level Winnipeg Center
Mon 02:30:08 PM 50.1000 -97.4667 297° West 100 115 3,100  Level Winnipeg Center
Mon 02:31:08 PM 50.0833 -97.4833 213° Southwest 110 127 3,100  Level Winnipeg Center
Mon 02:32:08 PM 50.0500 -97.5167 213° Southwest 110 127 3,100  Level Winnipeg Center
Mon 02:33:08 PM 50.0333 -97.4833 128° Southeast 150 173 3,100 -50 Level Winnipeg Center
Mon 02:34:08 PM 50.0500 -97.4333 63° Northeast 150 173 3,000 -100 Descending Winnipeg Center
Mon 02:35:08 PM 50.0667 -97.3500 73° East 150 173 2,900  Descending Winnipeg Center
Mon 02:36:08 PM 50.0333 -97.3500 180° South 110 127 3,000 50 Climbing Winnipeg Center
Mon 02:37:08 PM 50.0000 -97.3500 180° South 110 127 3,000  Level Winnipeg Center
Mon 02:38:08 PM 49.9667 -97.3500 180° South 110 127 3,000 -400 Level Winnipeg Center
Mon 02:39:08 PM 49.9500 -97.3000 117° Southeast 130 150 2,200 -700 Descending Winnipeg Center
Mon 02:40:08 PM 49.9167 -97.2833 162° South 130 150 1,600 -500 Descending Winnipeg Center
Mon 02:41:08 PM 49.9000 -97.2333 117° Southeast 120 138 1,200 150 Descending Winnipeg Center
Mon 02:42:08 PM 49.9000 -97.1667 90° East 150 173 1,900 300 Climbing Winnipeg Center
Mon 02:43:08 PM 49.9333 -97.1500 18° North 150 173 1,800 -50 Descending Winnipeg Center
Mon 02:44:08 PM 49.9667 -97.1000 44° Northeast 150 173 1,800  Level Winnipeg Center
Mon 02:45:08 PM 50.0000 -97.0500 44° Northeast 150 173 1,800  Level Winnipeg Center
Mon 02:46:08 PM 50.0167 -97.0167 52° Northeast 150 173 1,800 -50 Level Winnipeg Center
Mon 02:47:08 PM 50.0500 -97.0000 18° North 100 115 1,700 -350 Descending Winnipeg Center
Mon 02:48:08 PM 50.0500 -97.0167 270° West 70 81 1,100 -600 Descending Winnipeg Center

Login

Don't have an account? Register now (free) for customized features, flight alerts, and more!